Terminal Aerodrome Forecast
Issued by NWS

Home | Current Version | Previous Version | Text Only | Print | Product List | Glossary On
Versions: 1 2 3 4 5 6 7 8 9 10 11 12 13 14 15 16 17 18 19 20 21 22 23 24
000
FTUS45 KBOU 192334
TAFBJC
TAF
KBJC 192334Z 2000/2024 VRB05KT P6SM FEW120 SCT220
     FM200600 30005KT P6SM FEW220
     FM201500 VRB06KT P6SM FEW220
     FM202200 11006KT P6SM FEW120 SCT220=

USA.gov is the U.S. government's official web portal to all federal, state and local government web resources and services.